sensor_id;sensor_type;location;lat;lon;timestamp;pressure;altitude;pressure_sealevel;temperature
80422;BMP280;69763;50.182;9.144;2024-02-04T00:00:05;100852.59;;;7.74
80422;BMP280;69763;50.182;9.144;2024-02-04T00:02:31;100855.00;;;7.72
80422;BMP280;69763;50.182;9.144;2024-02-04T00:04:56;100860.13;;;7.70
80422;BMP280;69763;50.182;9.144;2024-02-04T00:07:22;100857.16;;;7.68
80422;BMP280;69763;50.182;9.144;2024-02-04T00:09:49;100852.22;;;7.66
80422;BMP280;69763;50.182;9.144;2024-02-04T00:12:14;100856.13;;;7.65
80422;BMP280;69763;50.182;9.144;2024-02-04T00:14:39;100847.03;;;7.63
80422;BMP280;69763;50.182;9.144;2024-02-04T00:17:05;100847.50;;;7.61
80422;BMP280;69763;50.182;9.144;2024-02-04T00:19:30;100849.72;;;7.63
80422;BMP280;69763;50.182;9.144;2024-02-04T00:21:56;100855.59;;;7.61
80422;BMP280;69763;50.182;9.144;2024-02-04T00:24:21;100849.44;;;7.61
80422;BMP280;69763;50.182;9.144;2024-02-04T00:26:48;100857.53;;;7.61
80422;BMP280;69763;50.182;9.144;2024-02-04T00:29:13;100858.00;;;7.59
80422;BMP280;69763;50.182;9.144;2024-02-04T00:31:40;100854.28;;;7.57
80422;BMP280;69763;50.182;9.144;2024-02-04T00:34:05;100856.72;;;7.55
80422;BMP280;69763;50.182;9.144;2024-02-04T00:36:31;100855.69;;;7.52
80422;BMP280;69763;50.182;9.144;2024-02-04T00:38:56;100852.44;;;7.48
80422;BMP280;69763;50.182;9.144;2024-02-04T00:41:22;100844.34;;;7.48
80422;BMP280;69763;50.182;9.144;2024-02-04T00:43:49;100842.13;;;7.47
80422;BMP280;69763;50.182;9.144;2024-02-04T00:46:14;100839.91;;;7.45
80422;BMP280;69763;50.182;9.144;2024-02-04T00:48:39;100838.41;;;7.44
80422;BMP280;69763;50.182;9.144;2024-02-04T00:51:05;100844.56;;;7.45
80422;BMP280;69763;50.182;9.144;2024-02-04T00:53:30;100838.13;;;7.42
80422;BMP280;69763;50.182;9.144;2024-02-04T00:55:56;100835.16;;;7.40
80422;BMP280;69763;50.182;9.144;2024-02-04T00:58:21;100830.97;;;7.39
80422;BMP280;69763;50.182;9.144;2024-02-04T01:00:48;100834.16;;;7.38
80422;BMP280;69763;50.182;9.144;2024-02-04T01:03:13;100826.53;;;7.36
80422;BMP280;69763;50.182;9.144;2024-02-04T01:05:38;100819.19;;;7.37
80422;BMP280;69763;50.182;9.144;2024-02-04T01:08:04;100819.19;;;7.37
80422;BMP280;69763;50.182;9.144;2024-02-04T01:10:30;100823.84;;;7.36
80422;BMP280;69763;50.182;9.144;2024-02-04T01:12:55;100833.13;;;7.35
80422;BMP280;69763;50.182;9.144;2024-02-04T01:15:20;100832.13;;;7.33
80422;BMP280;69763;50.182;9.144;2024-02-04T01:17:48;100820.81;;;7.28
80422;BMP280;69763;50.182;9.144;2024-02-04T01:20:13;100829.09;;;7.25
80422;BMP280;69763;50.182;9.144;2024-02-04T01:22:38;100825.38;;;7.22
80422;BMP280;69763;50.182;9.144;2024-02-04T01:25:05;100822.59;;;7.17
80422;BMP280;69763;50.182;9.144;2024-02-04T01:27:30;100814.41;;;7.11
80422;BMP280;69763;50.182;9.144;2024-02-04T01:29:56;100816.72;;;7.04
80422;BMP280;69763;50.182;9.144;2024-02-04T01:32:21;100817.13;;;6.97
80422;BMP280;69763;50.182;9.144;2024-02-04T01:34:48;100821.75;;;6.96
80422;BMP280;69763;50.182;9.144;2024-02-04T01:37:13;100821.03;;;6.96
80422;BMP280;69763;50.182;9.144;2024-02-04T01:39:38;100821.75;;;6.96
80422;BMP280;69763;50.182;9.144;2024-02-04T01:42:04;100825.94;;;6.97
80422;BMP280;69763;50.182;9.144;2024-02-04T01:44:29;100830.88;;;6.99
80422;BMP280;69763;50.182;9.144;2024-02-04T01:46:55;100823.63;;;7.05
80422;BMP280;69763;50.182;9.144;2024-02-04T01:49:20;100826.88;;;7.09
80422;BMP280;69763;50.182;9.144;2024-02-04T01:51:47;100830.84;;;7.13
80422;BMP280;69763;50.182;9.144;2024-02-04T01:54:13;100821.09;;;7.16
80422;BMP280;69763;50.182;9.144;2024-02-04T01:56:39;100820.91;;;7.19
80422;BMP280;69763;50.182;9.144;2024-02-04T01:59:05;100825.81;;;7.21
80422;BMP280;69763;50.182;9.144;2024-02-04T02:01:30;100823.88;;;7.21
80422;BMP280;69763;50.182;9.144;2024-02-04T02:03:56;100824.63;;;7.22
80422;BMP280;69763;50.182;9.144;2024-02-04T02:06:23;100834.19;;;7.23
80422;BMP280;69763;50.182;9.144;2024-02-04T02:08:51;100833.75;;;7.24
80422;BMP280;69763;50.182;9.144;2024-02-04T02:11:21;100817.56;;;7.24
80422;BMP280;69763;50.182;9.144;2024-02-04T02:13:50;100827.41;;;7.27
80422;BMP280;69763;50.182;9.144;2024-02-04T02:16:21;100818.84;;;7.29
80422;BMP280;69763;50.182;9.144;2024-02-04T02:18:52;100823.31;;;7.32
80422;BMP280;69763;50.182;9.144;2024-02-04T02:21:27;100819.19;;;7.37
80422;BMP280;69763;50.182;9.144;2024-02-04T02:24:04;100817.50;;;7.39
80422;BMP280;69763;50.182;9.144;2024-02-04T02:26:37;100820.47;;;7.41
80422;BMP280;69763;50.182;9.144;2024-02-04T02:29:02;100821.22;;;7.42
80422;BMP280;69763;50.182;9.144;2024-02-04T02:31:28;100820.75;;;7.43
80422;BMP280;69763;50.182;9.144;2024-02-04T02:33:53;100822.69;;;7.43
80422;BMP280;69763;50.182;9.144;2024-02-04T02:36:21;100817.75;;;7.41
80422;BMP280;69763;50.182;9.144;2024-02-04T02:38:53;100811.16;;;7.42
80422;BMP280;69763;50.182;9.144;2024-02-04T02:41:21;100816.09;;;7.44
80422;BMP280;69763;50.182;9.144;2024-02-04T02:43:51;100813.41;;;7.44
80422;BMP280;69763;50.182;9.144;2024-02-04T02:46:18;100801.84;;;7.43
80422;BMP280;69763;50.182;9.144;2024-02-04T02:48:44;100801.59;;;7.41
80422;BMP280;69763;50.182;9.144;2024-02-04T02:51:09;100800.09;;;7.40
80422;BMP280;69763;50.182;9.144;2024-02-04T02:53:35;100801.78;;;7.38
80422;BMP280;69763;50.182;9.144;2024-02-04T02:56:00;100807.19;;;7.38
80422;BMP280;69763;50.182;9.144;2024-02-04T02:58:25;100799.84;;;7.38
80422;BMP280;69763;50.182;9.144;2024-02-04T03:00:52;100802.53;;;7.38
80422;BMP280;69763;50.182;9.144;2024-02-04T03:03:18;100795.66;;;7.37
80422;BMP280;69763;50.182;9.144;2024-02-04T03:05:43;100799.56;;;7.36
80422;BMP280;69763;50.182;9.144;2024-02-04T03:08:08;100793.41;;;7.36
80422;BMP280;69763;50.182;9.144;2024-02-04T03:10:34;100781.88;;;7.35
80422;BMP280;69763;50.182;9.144;2024-02-04T03:12:59;100779.69;;;7.34
80422;BMP280;69763;50.182;9.144;2024-02-04T03:15:24;100776.25;;;7.33
80422;BMP280;69763;50.182;9.144;2024-02-04T03:17:51;100780.16;;;7.32
80422;BMP280;69763;50.182;9.144;2024-02-04T03:20:17;100784.78;;;7.32
80422;BMP280;69763;50.182;9.144;2024-02-04T03:22:42;100775.72;;;7.29
80422;BMP280;69763;50.182;9.144;2024-02-04T03:25:08;100782.31;;;7.28
80422;BMP280;69763;50.182;9.144;2024-02-04T03:27:33;100773.94;;;7.26
80422;BMP280;69763;50.182;9.144;2024-02-04T03:29:59;100772.44;;;7.25
80422;BMP280;69763;50.182;9.144;2024-02-04T03:32:24;100770.97;;;7.24
80422;BMP280;69763;50.182;9.144;2024-02-04T03:34:51;100762.59;;;7.22
80422;BMP280;69763;50.182;9.144;2024-02-04T03:37:16;100756.19;;;7.19
80422;BMP280;69763;50.182;9.144;2024-02-04T03:39:41;100760.84;;;7.19
80422;BMP280;69763;50.182;9.144;2024-02-04T03:42:07;100762.53;;;7.16
80422;BMP280;69763;50.182;9.144;2024-02-04T03:44:32;100749.50;;;7.15
80422;BMP280;69763;50.182;9.144;2024-02-04T03:46:58;100755.63;;;7.15
80422;BMP280;69763;50.182;9.144;2024-02-04T03:49:23;100744.13;;;7.15
80422;BMP280;69763;50.182;9.144;2024-02-04T03:51:50;100726.44;;;7.14
80422;BMP280;69763;50.182;9.144;2024-02-04T03:54:15;100734.53;;;7.14
80422;BMP280;69763;50.182;9.144;2024-02-04T03:56:41;100733.78;;;7.13
80422;BMP280;69763;50.182;9.144;2024-02-04T03:59:07;100722.72;;;7.11
80422;BMP280;69763;50.182;9.144;2024-02-04T04:01:32;100729.34;;;7.10
80422;BMP280;69763;50.182;9.144;2024-02-04T04:03:58;100738.16;;;7.11
80422;BMP280;69763;50.182;9.144;2024-02-04T04:06:23;100731.78;;;7.08
80422;BMP280;69763;50.182;9.144;2024-02-04T04:08:50;100717.53;;;7.08
80422;BMP280;69763;50.182;9.144;2024-02-04T04:11:15;100731.03;;;7.08
80422;BMP280;69763;50.182;9.144;2024-02-04T04:13:40;100715.31;;;7.06
80422;BMP280;69763;50.182;9.144;2024-02-04T04:16:06;100725.63;;;7.08
80422;BMP280;69763;50.182;9.144;2024-02-04T04:18:32;100729.06;;;7.08
80422;BMP280;69763;50.182;9.144;2024-02-04T04:20:57;100725.63;;;7.08
80422;BMP280;69763;50.182;9.144;2024-02-04T04:23:22;100734.19;;;7.06
80422;BMP280;69763;50.182;9.144;2024-02-04T04:25:49;100743.03;;;7.07
80422;BMP280;69763;50.182;9.144;2024-02-04T04:28:15;100739.13;;;7.08
80422;BMP280;69763;50.182;9.144;2024-02-04T04:30:40;100739.84;;;7.08
80422;BMP280;69763;50.182;9.144;2024-02-04T04:33:05;100734.00;;;7.10
80422;BMP280;69763;50.182;9.144;2024-02-04T04:35:31;100726.66;;;7.10
80422;BMP280;69763;50.182;9.144;2024-02-04T04:37:56;100741.59;;;7.11
80422;BMP280;69763;50.182;9.144;2024-02-04T04:40:21;100731.31;;;7.10
80422;BMP280;69763;50.182;9.144;2024-02-04T04:42:48;100738.91;;;7.11
80422;BMP280;69763;50.182;9.144;2024-02-04T04:45:14;100723.47;;;7.12
80422;BMP280;69763;50.182;9.144;2024-02-04T04:47:41;100724.22;;;7.12
80422;BMP280;69763;50.182;9.144;2024-02-04T04:50:06;100716.88;;;7.13
80422;BMP280;69763;50.182;9.144;2024-02-04T04:52:32;100728.69;;;7.15
80422;BMP280;69763;50.182;9.144;2024-02-04T04:54:57;100729.41;;;7.16
80422;BMP280;69763;50.182;9.144;2024-02-04T04:57:22;100722.53;;;7.15
80422;BMP280;69763;50.182;9.144;2024-02-04T04:59:49;100718.34;;;7.14
80422;BMP280;69763;50.182;9.144;2024-02-04T05:02:15;100728.69;;;7.15
80422;BMP280;69763;50.182;9.144;2024-02-04T05:04:42;100722.06;;;7.16
80422;BMP280;69763;50.182;9.144;2024-02-04T05:07:08;100726.72;;;7.16
80422;BMP280;69763;50.182;9.144;2024-02-04T05:09:33;100728.97;;;7.17
80422;BMP280;69763;50.182;9.144;2024-02-04T05:11:58;100731.66;;;7.17
80422;BMP280;69763;50.182;9.144;2024-02-04T05:14:24;100719.38;;;7.16
80422;BMP280;69763;50.182;9.144;2024-02-04T05:16:50;100709.34;;;7.17
80422;BMP280;69763;50.182;9.144;2024-02-04T05:19:16;100716.97;;;7.18
80422;BMP280;69763;50.182;9.144;2024-02-04T05:21:41;100710.38;;;7.19
80422;BMP280;69763;50.182;9.144;2024-02-04T05:24:06;100709.13;;;7.20
80422;BMP280;69763;50.182;9.144;2024-02-04T05:26:32;100714.78;;;7.22
80422;BMP280;69763;50.182;9.144;2024-02-04T05:28:57;100706.72;;;7.22
80422;BMP280;69763;50.182;9.144;2024-02-04T05:31:23;100716.28;;;7.23
80422;BMP280;69763;50.182;9.144;2024-02-04T05:33:51;100716.28;;;7.23
80422;BMP280;69763;50.182;9.144;2024-02-04T05:36:16;100712.84;;;7.23
80422;BMP280;69763;50.182;9.144;2024-02-04T05:38:44;100715.53;;;7.23
80422;BMP280;69763;50.182;9.144;2024-02-04T05:41:10;100716.56;;;7.25
80422;BMP280;69763;50.182;9.144;2024-02-04T05:43:35;100711.91;;;7.26
80422;BMP280;69763;50.182;9.144;2024-02-04T05:46:01;100721.97;;;7.25
80422;BMP280;69763;50.182;9.144;2024-02-04T05:48:26;100709.69;;;7.24
80422;BMP280;69763;50.182;9.144;2024-02-04T05:50:53;100715.81;;;7.25
80422;BMP280;69763;50.182;9.144;2024-02-04T05:53:18;100716.28;;;7.23
80422;BMP280;69763;50.182;9.144;2024-02-04T05:55:44;100726.59;;;7.25
80422;BMP280;69763;50.182;9.144;2024-02-04T05:58:09;100727.81;;;7.24
80422;BMP280;69763;50.182;9.144;2024-02-04T06:00:34;100726.34;;;7.23
80422;BMP280;69763;50.182;9.144;2024-02-04T06:03:00;100731.25;;;7.24
80422;BMP280;69763;50.182;9.144;2024-02-04T06:05:25;100725.88;;;7.24
80422;BMP280;69763;50.182;9.144;2024-02-04T06:07:52;100736.19;;;7.26
80422;BMP280;69763;50.182;9.144;2024-02-04T06:10:17;100744.56;;;7.28
80422;BMP280;69763;50.182;9.144;2024-02-04T06:12:43;100743.06;;;7.27
80422;BMP280;69763;50.182;9.144;2024-02-04T06:15:12;100744.56;;;7.28
80422;BMP280;69763;50.182;9.144;2024-02-04T06:17:37;100731.06;;;7.28
80422;BMP280;69763;50.182;9.144;2024-02-04T06:20:03;100737.22;;;7.28
80422;BMP280;69763;50.182;9.144;2024-02-04T06:22:29;100712.19;;;7.28
80422;BMP280;69763;50.182;9.144;2024-02-04T06:24:55;100733.78;;;7.28
80422;BMP280;69763;50.182;9.144;2024-02-04T06:27:20;100727.16;;;7.29
80422;BMP280;69763;50.182;9.144;2024-02-04T06:29:46;100721.03;;;7.28
80422;BMP280;69763;50.182;9.144;2024-02-04T06:32:11;100726.41;;;7.28
80422;BMP280;69763;50.182;9.144;2024-02-04T06:34:37;100706.06;;;7.27
80422;BMP280;69763;50.182;9.144;2024-02-04T06:37:02;100716.09;;;7.27
80422;BMP280;69763;50.182;9.144;2024-02-04T06:39:28;100725.69;;;7.28
80422;BMP280;69763;50.182;9.144;2024-02-04T06:41:54;100713.41;;;7.27
80422;BMP280;69763;50.182;9.144;2024-02-04T06:44:20;100716.09;;;7.27
80422;BMP280;69763;50.182;9.144;2024-02-04T06:46:45;100716.84;;;7.27
80422;BMP280;69763;50.182;9.144;2024-02-04T06:49:10;100718.78;;;7.27
80422;BMP280;69763;50.182;9.144;2024-02-04T06:51:36;100727.63;;;7.27
80422;BMP280;69763;50.182;9.144;2024-02-04T06:54:01;100712.94;;;7.28
80422;BMP280;69763;50.182;9.144;2024-02-04T06:56:26;100712.19;;;7.28
80422;BMP280;69763;50.182;9.144;2024-02-04T06:58:53;100687.19;;;7.27
80422;BMP280;69763;50.182;9.144;2024-02-04T07:01:18;100691.38;;;7.28
80422;BMP280;69763;50.182;9.144;2024-02-04T07:03:44;100693.78;;;7.26
80422;BMP280;69763;50.182;9.144;2024-02-04T07:06:09;100698.72;;;7.28
80422;BMP280;69763;50.182;9.144;2024-02-04T07:08:34;100698.97;;;7.30
80422;BMP280;69763;50.182;9.144;2024-02-04T07:11:00;100700.44;;;7.31
80422;BMP280;69763;50.182;9.144;2024-02-04T07:13:25;100717.38;;;7.32
80422;BMP280;69763;50.182;9.144;2024-02-04T07:15:52;100701.47;;;7.34
80422;BMP280;69763;50.182;9.144;2024-02-04T07:18:17;100715.94;;;7.36
80422;BMP280;69763;50.182;9.144;2024-02-04T07:20:42;100719.38;;;7.37
80422;BMP280;69763;50.182;9.144;2024-02-04T07:23:09;100717.44;;;7.37
80422;BMP280;69763;50.182;9.144;2024-02-04T07:25:34;100728.47;;;7.39
80422;BMP280;69763;50.182;9.144;2024-02-04T07:27:59;100726.06;;;7.41
80422;BMP280;69763;50.182;9.144;2024-02-04T07:30:25;100723.63;;;7.43
80422;BMP280;69763;50.182;9.144;2024-02-04T07:32:51;100730.03;;;7.46
80422;BMP280;69763;50.182;9.144;2024-02-04T07:35:17;100718.03;;;7.47
80422;BMP280;69763;50.182;9.144;2024-02-04T07:37:42;100721.00;;;7.49
80422;BMP280;69763;50.182;9.144;2024-02-04T07:40:08;100718.84;;;7.53
80422;BMP280;69763;50.182;9.144;2024-02-04T07:42:33;100707.59;;;7.54
80422;BMP280;69763;50.182;9.144;2024-02-04T07:44:59;100709.06;;;7.55
80422;BMP280;69763;50.182;9.144;2024-02-04T07:47:25;100707.13;;;7.56
80422;BMP280;69763;50.182;9.144;2024-02-04T07:49:51;100710.06;;;7.58
80422;BMP280;69763;50.182;9.144;2024-02-04T07:52:16;100715.28;;;7.61
80422;BMP280;69763;50.182;9.144;2024-02-04T07:54:42;100715.31;;;7.67
80422;BMP280;69763;50.182;9.144;2024-02-04T07:57:07;100720.81;;;7.73
80422;BMP280;69763;50.182;9.144;2024-02-04T07:59:33;100720.38;;;7.80
80422;BMP280;69763;50.182;9.144;2024-02-04T08:01:58;100711.38;;;7.88
80422;BMP280;69763;50.182;9.144;2024-02-04T08:04:24;100714.94;;;8.00
80422;BMP280;69763;50.182;9.144;2024-02-04T08:06:50;100718.44;;;8.06
80422;BMP280;69763;50.182;9.144;2024-02-04T08:09:16;100708.66;;;8.08
80422;BMP280;69763;50.182;9.144;2024-02-04T08:11:41;100715.25;;;8.07
80422;BMP280;69763;50.182;9.144;2024-02-04T08:14:06;100725.03;;;8.05
80422;BMP280;69763;50.182;9.144;2024-02-04T08:16:32;100737.28;;;8.00
80422;BMP280;69763;50.182;9.144;2024-02-04T08:18:57;100724.44;;;7.95
80422;BMP280;69763;50.182;9.144;2024-02-04T08:21:23;100730.78;;;7.92
80422;BMP280;69763;50.182;9.144;2024-02-04T08:23:50;100726.88;;;7.93
80422;BMP280;69763;50.182;9.144;2024-02-04T08:26:15;100717.56;;;7.94
80422;BMP280;69763;50.182;9.144;2024-02-04T08:28:40;100718.78;;;7.93
80422;BMP280;69763;50.182;9.144;2024-02-04T08:31:06;100723.25;;;7.96
80422;BMP280;69763;50.182;9.144;2024-02-04T08:33:31;100708.78;;;7.99
80422;BMP280;69763;50.182;9.144;2024-02-04T08:35:57;100705.34;;;7.99
80422;BMP280;69763;50.182;9.144;2024-02-04T08:38:22;100711.91;;;7.92
80422;BMP280;69763;50.182;9.144;2024-02-04T08:40:49;100719.69;;;7.85
80422;BMP280;69763;50.182;9.144;2024-02-04T08:43:14;100723.59;;;7.84
80422;BMP280;69763;50.182;9.144;2024-02-04T08:45:39;100716.06;;;7.93
80422;BMP280;69763;50.182;9.144;2024-02-04T08:48:05;100722.81;;;8.03
80422;BMP280;69763;50.182;9.144;2024-02-04T08:50:31;100740.50;;;8.04
80422;BMP280;69763;50.182;9.144;2024-02-04T08:52:56;100742.72;;;8.06
80422;BMP280;69763;50.182;9.144;2024-02-04T08:55:22;100731.94;;;8.06
80422;BMP280;69763;50.182;9.144;2024-02-04T08:57:48;100734.09;;;8.02
80422;BMP280;69763;50.182;9.144;2024-02-04T09:00:14;100719.31;;;7.97
80422;BMP280;69763;50.182;9.144;2024-02-04T09:02:40;100735.06;;;7.99
80422;BMP280;69763;50.182;9.144;2024-02-04T09:05:06;100719.19;;;8.06
80422;BMP280;69763;50.182;9.144;2024-02-04T09:07:31;100730.56;;;8.16
80422;BMP280;69763;50.182;9.144;2024-02-04T09:09:57;100734.25;;;8.19
80422;BMP280;69763;50.182;9.144;2024-02-04T09:12:22;100726.38;;;8.15
80422;BMP280;69763;50.182;9.144;2024-02-04T09:14:49;100736.16;;;8.13
80422;BMP280;69763;50.182;9.144;2024-02-04T09:17:14;100732.53;;;8.16
80422;BMP280;69763;50.182;9.144;2024-02-04T09:19:40;100739.66;;;8.19
80422;BMP280;69763;50.182;9.144;2024-02-04T09:22:05;100735.28;;;8.21
80422;BMP280;69763;50.182;9.144;2024-02-04T09:24:31;100717.41;;;8.29
80422;BMP280;69763;50.182;9.144;2024-02-04T09:26:56;100718.44;;;8.32
80422;BMP280;69763;50.182;9.144;2024-02-04T09:29:22;100719.41;;;8.34
80422;BMP280;69763;50.182;9.144;2024-02-04T09:31:49;100717.72;;;8.37
80422;BMP280;69763;50.182;9.144;2024-02-04T09:34:14;100733.72;;;8.40
80422;BMP280;69763;50.182;9.144;2024-02-04T09:36:39;100726.13;;;8.44
80422;BMP280;69763;50.182;9.144;2024-02-04T09:39:05;100726.84;;;8.45
80422;BMP280;69763;50.182;9.144;2024-02-04T09:41:30;100722.66;;;8.44
80422;BMP280;69763;50.182;9.144;2024-02-04T09:43:56;100720.72;;;8.44
80422;BMP280;69763;50.182;9.144;2024-02-04T09:46:22;100734.69;;;8.43
80422;BMP280;69763;50.182;9.144;2024-02-04T09:48:49;100742.28;;;8.39
80422;BMP280;69763;50.182;9.144;2024-02-04T09:51:16;100724.84;;;8.40
80422;BMP280;69763;50.182;9.144;2024-02-04T09:53:43;100723.63;;;8.41
80422;BMP280;69763;50.182;9.144;2024-02-04T09:56:09;100715.84;;;8.48
80422;BMP280;69763;50.182;9.144;2024-02-04T09:58:36;100712.66;;;8.50
80422;BMP280;69763;50.182;9.144;2024-02-04T10:01:02;100718.81;;;8.51
80422;BMP280;69763;50.182;9.144;2024-02-04T10:03:29;100713.81;;;8.43
80422;BMP280;69763;50.182;9.144;2024-02-04T10:05:56;100722.66;;;8.44
80422;BMP280;69763;50.182;9.144;2024-02-04T10:08:22;100709.22;;;8.50
80422;BMP280;69763;50.182;9.144;2024-02-04T10:10:47;100726.25;;;8.61
80422;BMP280;69763;50.182;9.144;2024-02-04T10:13:13;100725.56;;;8.66
80422;BMP280;69763;50.182;9.144;2024-02-04T10:15:38;100731.28;;;8.74
80422;BMP280;69763;50.182;9.144;2024-02-04T10:18:05;100727.84;;;8.79
80422;BMP280;69763;50.182;9.144;2024-02-04T10:20:31;100730.25;;;8.71
80422;BMP280;69763;50.182;9.144;2024-02-04T10:22:57;100722.88;;;8.66
80422;BMP280;69763;50.182;9.144;2024-02-04T10:25:23;100726.78;;;8.65
80422;BMP280;69763;50.182;9.144;2024-02-04T10:27:49;100732.97;;;8.71
80422;BMP280;69763;50.182;9.144;2024-02-04T10:30:14;100722.47;;;8.84
80422;BMP280;69763;50.182;9.144;2024-02-04T10:32:39;100718.34;;;8.89
80422;BMP280;69763;50.182;9.144;2024-02-04T10:35:07;100713.16;;;8.85
80422;BMP280;69763;50.182;9.144;2024-02-04T10:37:33;100713.88;;;8.80
80422;BMP280;69763;50.182;9.144;2024-02-04T10:39:59;100701.84;;;8.81
80422;BMP280;69763;50.182;9.144;2024-02-04T10:42:26;100690.56;;;8.89
80422;BMP280;69763;50.182;9.144;2024-02-04T10:44:53;100694.97;;;8.92
80422;BMP280;69763;50.182;9.144;2024-02-04T10:47:22;100693.28;;;9.00
80422;BMP280;69763;50.182;9.144;2024-02-04T10:49:50;100705.38;;;9.04
80422;BMP280;69763;50.182;9.144;2024-02-04T10:52:17;100696.53;;;9.04
80422;BMP280;69763;50.182;9.144;2024-02-04T10:54:42;100693.13;;;9.14
80422;BMP280;69763;50.182;9.144;2024-02-04T10:57:12;100684.31;;;9.19
80422;BMP280;69763;50.182;9.144;2024-02-04T10:59:38;100693.19;;;9.25
80422;BMP280;69763;50.182;9.144;2024-02-04T11:02:05;100686.81;;;9.29
80422;BMP280;69763;50.182;9.144;2024-02-04T11:04:31;100688.53;;;9.32
80422;BMP280;69763;50.182;9.144;2024-02-04T11:06:57;100676.72;;;9.46
80422;BMP280;69763;50.182;9.144;2024-02-04T11:09:24;100675.56;;;9.58
80422;BMP280;69763;50.182;9.144;2024-02-04T11:11:51;100679.72;;;9.53
80422;BMP280;69763;50.182;9.144;2024-02-04T11:14:19;100676.78;;;9.57
80422;BMP280;69763;50.182;9.144;2024-02-04T11:16:59;100670.41;;;9.65
80422;BMP280;69763;50.182;9.144;2024-02-04T11:19:37;100674.81;;;9.68
80422;BMP280;69763;50.182;9.144;2024-02-04T11:22:25;100666.22;;;9.64
80422;BMP280;69763;50.182;9.144;2024-02-04T11:25:07;100671.16;;;9.66
80422;BMP280;69763;50.182;9.144;2024-02-04T11:27:35;100676.56;;;9.72
80422;BMP280;69763;50.182;9.144;2024-02-04T11:30:03;100669.94;;;9.67
80422;BMP280;69763;50.182;9.144;2024-02-04T11:32:28;100664.47;;;9.61
80422;BMP280;69763;50.182;9.144;2024-02-04T11:34:54;100658.56;;;9.57
80422;BMP280;69763;50.182;9.144;2024-02-04T11:37:19;100657.34;;;9.64
80422;BMP280;69763;50.182;9.144;2024-02-04T11:39:48;100670.41;;;9.65
80422;BMP280;69763;50.182;9.144;2024-02-04T11:42:14;100669.69;;;9.76
80422;BMP280;69763;50.182;9.144;2024-02-04T11:44:39;100663.53;;;9.92
80422;BMP280;69763;50.182;9.144;2024-02-04T11:47:06;100670.91;;;10.08
80422;BMP280;69763;50.182;9.144;2024-02-04T11:49:32;100667.47;;;10.08
80422;BMP280;69763;50.182;9.144;2024-02-04T11:51:57;100669.69;;;10.10
80422;BMP280;69763;50.182;9.144;2024-02-04T11:54:22;100661.06;;;10.22
80422;BMP280;69763;50.182;9.144;2024-02-04T11:56:48;100656.16;;;10.32
80422;BMP280;69763;50.182;9.144;2024-02-04T11:59:14;100659.81;;;10.34
80422;BMP280;69763;50.182;9.144;2024-02-04T12:01:40;100659.81;;;10.34
80422;BMP280;69763;50.182;9.144;2024-02-04T12:04:12;100673.38;;;10.34
80422;BMP280;69763;50.182;9.144;2024-02-04T12:06:39;100673.63;;;10.25
80422;BMP280;69763;50.182;9.144;2024-02-04T12:09:05;100668.94;;;10.15
80422;BMP280;69763;50.182;9.144;2024-02-04T12:11:31;100666.00;;;10.01
80422;BMP280;69763;50.182;9.144;2024-02-04T12:13:58;100656.41;;;9.89
80422;BMP280;69763;50.182;9.144;2024-02-04T12:16:25;100646.78;;;9.77
80422;BMP280;69763;50.182;9.144;2024-02-04T12:18:51;100647.75;;;9.68
80422;BMP280;69763;50.182;9.144;2024-02-04T12:21:18;100647.75;;;9.68
80422;BMP280;69763;50.182;9.144;2024-02-04T12:23:43;100640.16;;;9.73
80422;BMP280;69763;50.182;9.144;2024-02-04T12:26:09;100640.63;;;9.71
80422;BMP280;69763;50.182;9.144;2024-02-04T12:28:34;100646.56;;;9.86
80422;BMP280;69763;50.182;9.144;2024-02-04T12:31:00;100636.94;;;10.07
80422;BMP280;69763;50.182;9.144;2024-02-04T12:33:25;100639.13;;;10.20
80422;BMP280;69763;50.182;9.144;2024-02-04T12:35:51;100638.88;;;10.29
80422;BMP280;69763;50.182;9.144;2024-02-04T12:38:18;100628.06;;;10.29
80422;BMP280;69763;50.182;9.144;2024-02-04T12:40:43;100627.31;;;10.29
80422;BMP280;69763;50.182;9.144;2024-02-04T12:43:11;100621.88;;;10.40
80422;BMP280;69763;50.182;9.144;2024-02-04T12:45:36;100617.13;;;10.46
80422;BMP280;69763;50.182;9.144;2024-02-04T12:48:02;100606.09;;;10.44
80422;BMP280;69763;50.182;9.144;2024-02-04T12:50:28;100623.28;;;10.46
80422;BMP280;69763;50.182;9.144;2024-02-04T12:53:03;100611.19;;;10.53
80422;BMP280;69763;50.182;9.144;2024-02-04T12:55:30;100618.63;;;10.53
80422;BMP280;69763;50.182;9.144;2024-02-04T12:58:03;100609.00;;;10.46
80422;BMP280;69763;50.182;9.144;2024-02-04T13:00:28;100625.59;;;10.31
80422;BMP280;69763;50.182;9.144;2024-02-04T13:02:54;100621.63;;;10.27
80422;BMP280;69763;50.182;9.144;2024-02-04T13:05:23;100609.81;;;10.19
80422;BMP280;69763;50.182;9.144;2024-02-04T13:07:51;100623.13;;;10.05
80422;BMP280;69763;50.182;9.144;2024-02-04T13:10:17;100605.44;;;9.93
80422;BMP280;69763;50.182;9.144;2024-02-04T13:12:44;100606.69;;;9.81
80422;BMP280;69763;50.182;9.144;2024-02-04T13:15:09;100602.25;;;9.73
80422;BMP280;69763;50.182;9.144;2024-02-04T13:17:34;100605.44;;;9.71
80422;BMP280;69763;50.182;9.144;2024-02-04T13:20:00;100594.88;;;9.73
80422;BMP280;69763;50.182;9.144;2024-02-04T13:22:25;100595.59;;;9.85
80422;BMP280;69763;50.182;9.144;2024-02-04T13:24:51;100588.94;;;9.91
80422;BMP280;69763;50.182;9.144;2024-02-04T13:27:16;100598.06;;;9.94
80422;BMP280;69763;50.182;9.144;2024-02-04T13:29:43;100593.63;;;9.96
80422;BMP280;69763;50.182;9.144;2024-02-04T13:32:08;100606.41;;;10.01
80422;BMP280;69763;50.182;9.144;2024-02-04T13:34:33;100607.16;;;10.02
80422;BMP280;69763;50.182;9.144;2024-02-04T13:36:59;100602.69;;;9.99
80422;BMP280;69763;50.182;9.144;2024-02-04T13:39:24;100597.28;;;9.99
80422;BMP280;69763;50.182;9.144;2024-02-04T13:41:50;100596.81;;;9.95
80422;BMP280;69763;50.182;9.144;2024-02-04T13:44:15;100598.31;;;9.85
80422;BMP280;69763;50.182;9.144;2024-02-04T13:46:42;100600.75;;;9.77
80422;BMP280;69763;50.182;9.144;2024-02-04T13:49:07;100611.09;;;9.68
80422;BMP280;69763;50.182;9.144;2024-02-04T13:51:32;100605.91;;;9.58
80422;BMP280;69763;50.182;9.144;2024-02-04T13:53:58;100610.06;;;9.54
80422;BMP280;69763;50.182;9.144;2024-02-04T13:56:23;100601.72;;;9.52
80422;BMP280;69763;50.182;9.144;2024-02-04T13:58:49;100602.47;;;9.58
80422;BMP280;69763;50.182;9.144;2024-02-04T14:01:14;100597.81;;;9.64